sensor_id;sensor_type;location;lat;lon;timestamp;pressure;altitude;pressure_sealevel;temperature;humidity
25658;BME280;13517;59.320;18.042;2022-10-23T00:01:20;100485.78;;;6.09;100.00
25658;BME280;13517;59.320;18.042;2022-10-23T00:03:46;100483.25;;;6.06;100.00
25658;BME280;13517;59.320;18.042;2022-10-23T00:06:12;100488.31;;;6.12;100.00
25658;BME280;13517;59.320;18.042;2022-10-23T00:08:39;100484.75;;;6.12;100.00
25658;BME280;13517;59.320;18.042;2022-10-23T00:11:11;100473.19;;;6.11;100.00
25658;BME280;13517;59.320;18.042;2022-10-23T00:13:37;100473.97;;;6.13;100.00
25658;BME280;13517;59.320;18.042;2022-10-23T00:16:03;100472.88;;;6.18;100.00
25658;BME280;13517;59.320;18.042;2022-10-23T00:18:28;100459.91;;;6.08;100.00
25658;BME280;13517;59.320;18.042;2022-10-23T00:20:54;100488.72;;;6.22;100.00
25658;BME280;13517;59.320;18.042;2022-10-23T00:23:19;100484.38;;;6.20;100.00
25658;BME280;13517;59.320;18.042;2022-10-23T00:25:44;100482.47;;;6.22;100.00
25658;BME280;13517;59.320;18.042;2022-10-23T00:28:10;100468.66;;;6.12;100.00
25658;BME280;13517;59.320;18.042;2022-10-23T00:30:35;100485.81;;;6.27;100.00
25658;BME280;13517;59.320;18.042;2022-10-23T00:33:01;100445.88;;;6.03;100.00
25658;BME280;13517;59.320;18.042;2022-10-23T00:35:26;100484.16;;;6.24;100.00
25658;BME280;13517;59.320;18.042;2022-10-23T00:37:51;100465.91;;;6.13;100.00
25658;BME280;13517;59.320;18.042;2022-10-23T00:40:17;100491.88;;;6.31;100.00
25658;BME280;13517;59.320;18.042;2022-10-23T00:42:42;100476.34;;;6.20;100.00
25658;BME280;13517;59.320;18.042;2022-10-23T00:45:19;100451.97;;;6.07;100.00
25658;BME280;13517;59.320;18.042;2022-10-23T00:47:46;100466.63;;;6.17;100.00
25658;BME280;13517;59.320;18.042;2022-10-23T00:50:12;100465.97;;;6.12;100.00
25658;BME280;13517;59.320;18.042;2022-10-23T00:52:41;100463.94;;;6.17;100.00
25658;BME280;13517;59.320;18.042;2022-10-23T00:55:09;100461.75;;;6.08;100.00
25658;BME280;13517;59.320;18.042;2022-10-23T00:57:35;100489.91;;;6.17;100.00
25658;BME280;13517;59.320;18.042;2022-10-23T01:00:03;100491.78;;;6.15;100.00
25658;BME280;13517;59.320;18.042;2022-10-23T01:02:28;100476.16;;;6.05;100.00
25658;BME280;13517;59.320;18.042;2022-10-23T01:04:54;100476.31;;;6.02;100.00
25658;BME280;13517;59.320;18.042;2022-10-23T01:07:55;100498.91;;;5.96;100.00
25658;BME280;13517;59.320;18.042;2022-10-23T01:10:43;100495.72;;;5.88;100.00
25658;BME280;13517;59.320;18.042;2022-10-23T01:13:25;100485.03;;;5.69;100.00
25658;BME280;13517;59.320;18.042;2022-10-23T01:16:09;100469.84;;;5.50;100.00
25658;BME280;13517;59.320;18.042;2022-10-23T01:18:44;100471.84;;;5.45;100.00
25658;BME280;13517;59.320;18.042;2022-10-23T01:21:22;100503.72;;;5.51;100.00
25658;BME280;13517;59.320;18.042;2022-10-23T01:24:02;100492.78;;;5.37;100.00
25658;BME280;13517;59.320;18.042;2022-10-23T01:26:56;100497.06;;;5.41;100.00
25658;BME280;13517;59.320;18.042;2022-10-23T01:29:40;100492.16;;;5.31;100.00
25658;BME280;13517;59.320;18.042;2022-10-23T01:32:19;100507.56;;;5.45;100.00
25658;BME280;13517;59.320;18.042;2022-10-23T01:35:06;100512.69;;;5.50;100.00
25658;BME280;13517;59.320;18.042;2022-10-23T01:38:21;100496.78;;;5.47;100.00
25658;BME280;13517;59.320;18.042;2022-10-23T01:43:27;100514.31;;;5.54;100.00
25658;BME280;13517;59.320;18.042;2022-10-23T01:45:59;100518.66;;;5.57;100.00
25658;BME280;13517;59.320;18.042;2022-10-23T01:48:28;100507.06;;;5.56;100.00
25658;BME280;13517;59.320;18.042;2022-10-23T01:50:57;100527.56;;;5.57;100.00
25658;BME280;13517;59.320;18.042;2022-10-23T01:53:26;100495.91;;;5.47;100.00
25658;BME280;13517;59.320;18.042;2022-10-23T01:55:57;100490.72;;;5.43;100.00
25658;BME280;13517;59.320;18.042;2022-10-23T01:58:24;100498.47;;;5.50;100.00
25658;BME280;13517;59.320;18.042;2022-10-23T02:00:52;100510.41;;;5.62;100.00
25658;BME280;13517;59.320;18.042;2022-10-23T02:03:20;100501.75;;;5.55;100.00
25658;BME280;13517;59.320;18.042;2022-10-23T02:05:47;100504.16;;;5.61;100.00
25658;BME280;13517;59.320;18.042;2022-10-23T02:08:13;100502.66;;;5.55;100.00
25658;BME280;13517;59.320;18.042;2022-10-23T02:13:15;100506.78;;;5.63;100.00
25658;BME280;13517;59.320;18.042;2022-10-23T02:15:50;100518.50;;;5.60;100.00
25658;BME280;13517;59.320;18.042;2022-10-23T02:21:11;100507.22;;;5.53;100.00
25658;BME280;13517;59.320;18.042;2022-10-23T02:23:43;100517.63;;;5.59;100.00
25658;BME280;13517;59.320;18.042;2022-10-23T02:28:55;100507.34;;;5.50;100.00
25658;BME280;13517;59.320;18.042;2022-10-23T02:31:22;100518.72;;;5.55;100.00
25658;BME280;13517;59.320;18.042;2022-10-23T02:33:48;100518.78;;;5.54;100.00
25658;BME280;13517;59.320;18.042;2022-10-23T02:36:15;100517.06;;;5.53;100.00
25658;BME280;13517;59.320;18.042;2022-10-23T02:38:43;100517.94;;;5.53;100.00
25658;BME280;13517;59.320;18.042;2022-10-23T02:46:41;100512.56;;;5.53;100.00
25658;BME280;13517;59.320;18.042;2022-10-23T02:49:13;100511.69;;;5.53;100.00
25658;BME280;13517;59.320;18.042;2022-10-23T02:52:00;100508.56;;;5.43;100.00
25658;BME280;13517;59.320;18.042;2022-10-23T02:54:45;100507.78;;;5.41;100.00
25658;BME280;13517;59.320;18.042;2022-10-23T02:59:59;100503.44;;;5.19;100.00
25658;BME280;13517;59.320;18.042;2022-10-23T03:02:40;100518.41;;;5.23;100.00
25658;BME280;13517;59.320;18.042;2022-10-23T03:05:11;100520.13;;;5.24;100.00
25658;BME280;13517;59.320;18.042;2022-10-23T03:07:38;100526.66;;;5.18;100.00
25658;BME280;13517;59.320;18.042;2022-10-23T03:10:05;100508.28;;;5.11;100.00
25658;BME280;13517;59.320;18.042;2022-10-23T03:12:31;100506.25;;;4.95;100.00
25658;BME280;13517;59.320;18.042;2022-10-23T03:14:57;100522.16;;;5.00;100.00
25658;BME280;13517;59.320;18.042;2022-10-23T03:17:22;100534.13;;;4.91;100.00
25658;BME280;13517;59.320;18.042;2022-10-23T03:19:49;100508.22;;;4.71;100.00
25658;BME280;13517;59.320;18.042;2022-10-23T03:22:15;100541.06;;;4.74;100.00
25658;BME280;13517;59.320;18.042;2022-10-23T03:24:40;100530.91;;;4.62;100.00
25658;BME280;13517;59.320;18.042;2022-10-23T03:27:05;100523.34;;;4.51;100.00
25658;BME280;13517;59.320;18.042;2022-10-23T03:29:31;100525.19;;;4.49;100.00
25658;BME280;13517;59.320;18.042;2022-10-23T03:31:56;100528.28;;;4.40;100.00
25658;BME280;13517;59.320;18.042;2022-10-23T03:34:22;100511.06;;;4.25;100.00
25658;BME280;13517;59.320;18.042;2022-10-23T03:36:47;100531.34;;;4.30;100.00
25658;BME280;13517;59.320;18.042;2022-10-23T03:39:12;100531.66;;;4.22;100.00
25658;BME280;13517;59.320;18.042;2022-10-23T03:41:38;100517.06;;;4.09;100.00
25658;BME280;13517;59.320;18.042;2022-10-23T03:44:03;100480.66;;;3.84;100.00
25658;BME280;13517;59.320;18.042;2022-10-23T03:46:29;100521.78;;;4.02;100.00
25658;BME280;13517;59.320;18.042;2022-10-23T03:48:54;100516.78;;;3.93;100.00
25658;BME280;13517;59.320;18.042;2022-10-23T03:51:22;100528.97;;;4.00;100.00
25658;BME280;13517;59.320;18.042;2022-10-23T03:53:48;100531.78;;;3.97;100.00
25658;BME280;13517;59.320;18.042;2022-10-23T03:56:13;100528.38;;;3.93;100.00
25658;BME280;13517;59.320;18.042;2022-10-23T03:58:39;100530.28;;;3.90;100.00
25658;BME280;13517;59.320;18.042;2022-10-23T04:01:04;100533.97;;;3.87;100.00
25658;BME280;13517;59.320;18.042;2022-10-23T04:03:29;100525.38;;;3.79;100.00
25658;BME280;13517;59.320;18.042;2022-10-23T04:05:55;100520.28;;;3.73;100.00
25658;BME280;13517;59.320;18.042;2022-10-23T04:08:20;100535.13;;;3.80;100.00
25658;BME280;13517;59.320;18.042;2022-10-23T04:10:46;100534.53;;;3.73;100.00
25658;BME280;13517;59.320;18.042;2022-10-23T04:13:11;100511.94;;;3.58;100.00
25658;BME280;13517;59.320;18.042;2022-10-23T04:15:36;100532.69;;;3.74;100.00
25658;BME280;13517;59.320;18.042;2022-10-23T04:18:02;100513.56;;;3.62;100.00
25658;BME280;13517;59.320;18.042;2022-10-23T04:20:28;100519.72;;;3.64;100.00
25658;BME280;13517;59.320;18.042;2022-10-23T04:22:53;100515.41;;;3.60;100.00
25658;BME280;13517;59.320;18.042;2022-10-23T04:25:19;100509.31;;;3.57;100.00
25658;BME280;13517;59.320;18.042;2022-10-23T04:27:44;100541.78;;;3.70;100.00
25658;BME280;13517;59.320;18.042;2022-10-23T04:30:10;100545.41;;;3.68;100.00
25658;BME280;13517;59.320;18.042;2022-10-23T04:32:36;100547.38;;;3.63;100.00
25658;BME280;13517;59.320;18.042;2022-10-23T04:35:01;100550.13;;;3.60;100.00
25658;BME280;13517;59.320;18.042;2022-10-23T04:37:27;100522.25;;;3.45;100.00
25658;BME280;13517;59.320;18.042;2022-10-23T04:39:52;100565.13;;;3.64;100.00
25658;BME280;13517;59.320;18.042;2022-10-23T04:42:18;100556.53;;;3.56;100.00
25658;BME280;13517;59.320;18.042;2022-10-23T04:44:43;100550.56;;;3.49;100.00
25658;BME280;13517;59.320;18.042;2022-10-23T04:47:09;100535.88;;;3.37;100.00
25658;BME280;13517;59.320;18.042;2022-10-23T04:49:34;100520.31;;;3.25;100.00
25658;BME280;13517;59.320;18.042;2022-10-23T04:51:59;100552.13;;;3.31;100.00
25658;BME280;13517;59.320;18.042;2022-10-23T04:54:25;100536.50;;;3.20;100.00
25658;BME280;13517;59.320;18.042;2022-10-23T04:56:50;100563.84;;;3.27;100.00
25658;BME280;13517;59.320;18.042;2022-10-23T04:59:16;100565.00;;;3.20;100.00
25658;BME280;13517;59.320;18.042;2022-10-23T05:01:41;100567.06;;;3.11;100.00
25658;BME280;13517;59.320;18.042;2022-10-23T05:04:06;100574.03;;;3.16;100.00
25658;BME280;13517;59.320;18.042;2022-10-23T05:06:32;100562.19;;;2.99;100.00
25658;BME280;13517;59.320;18.042;2022-10-23T05:08:57;100579.72;;;3.06;100.00
25658;BME280;13517;59.320;18.042;2022-10-23T05:11:23;100551.13;;;2.84;100.00
25658;BME280;13517;59.320;18.042;2022-10-23T05:13:48;100567.91;;;2.88;100.00
25658;BME280;13517;59.320;18.042;2022-10-23T05:16:29;100583.84;;;2.90;100.00
25658;BME280;13517;59.320;18.042;2022-10-23T05:18:57;100587.44;;;2.89;100.00
25658;BME280;13517;59.320;18.042;2022-10-23T05:21:26;100583.25;;;2.81;100.00
25658;BME280;13517;59.320;18.042;2022-10-23T05:23:53;100592.91;;;2.85;100.00
25658;BME280;13517;59.320;18.042;2022-10-23T05:26:19;100597.56;;;2.79;100.00
25658;BME280;13517;59.320;18.042;2022-10-23T05:28:46;100561.63;;;2.64;100.00
25658;BME280;13517;59.320;18.042;2022-10-23T05:31:12;100586.13;;;2.75;100.00
25658;BME280;13517;59.320;18.042;2022-10-23T05:33:38;100601.16;;;2.78;100.00
25658;BME280;13517;59.320;18.042;2022-10-23T05:36:06;100585.47;;;2.68;100.00
25658;BME280;13517;59.320;18.042;2022-10-23T05:38:33;100586.31;;;2.69;100.00
25658;BME280;13517;59.320;18.042;2022-10-23T05:40:59;100603.94;;;2.75;100.00
25658;BME280;13517;59.320;18.042;2022-10-23T05:43:25;100608.38;;;2.74;100.00
25658;BME280;13517;59.320;18.042;2022-10-23T05:45:52;100580.47;;;2.59;100.00
25658;BME280;13517;59.320;18.042;2022-10-23T05:48:17;100609.31;;;2.73;100.00
25658;BME280;13517;59.320;18.042;2022-10-23T05:50:43;100605.06;;;2.67;100.00
25658;BME280;13517;59.320;18.042;2022-10-23T05:53:09;100616.41;;;2.74;100.00
25658;BME280;13517;59.320;18.042;2022-10-23T05:55:35;100581.22;;;2.63;100.00
25658;BME280;13517;59.320;18.042;2022-10-23T05:58:01;100616.31;;;2.77;100.00
25658;BME280;13517;59.320;18.042;2022-10-23T06:00:27;100597.22;;;2.63;100.00
25658;BME280;13517;59.320;18.042;2022-10-23T06:02:52;100630.66;;;2.73;100.00
25658;BME280;13517;59.320;18.042;2022-10-23T06:05:18;100585.28;;;2.48;100.00
25658;BME280;13517;59.320;18.042;2022-10-23T06:07:43;100637.84;;;2.71;100.00
25658;BME280;13517;59.320;18.042;2022-10-23T06:10:08;100610.81;;;2.55;100.00
25658;BME280;13517;59.320;18.042;2022-10-23T06:12:34;100618.66;;;2.59;100.00
25658;BME280;13517;59.320;18.042;2022-10-23T06:14:59;100632.97;;;2.57;100.00
25658;BME280;13517;59.320;18.042;2022-10-23T06:17:26;100622.66;;;2.46;100.00
25658;BME280;13517;59.320;18.042;2022-10-23T06:19:52;100641.31;;;2.46;100.00
25658;BME280;13517;59.320;18.042;2022-10-23T06:22:17;100627.56;;;2.31;100.00
25658;BME280;13517;59.320;18.042;2022-10-23T06:24:42;100617.00;;;2.28;100.00
25658;BME280;13517;59.320;18.042;2022-10-23T06:27:08;100648.53;;;2.42;100.00
25658;BME280;13517;59.320;18.042;2022-10-23T06:29:33;100642.34;;;2.42;100.00
25658;BME280;13517;59.320;18.042;2022-10-23T06:31:59;100647.75;;;2.39;100.00
25658;BME280;13517;59.320;18.042;2022-10-23T06:34:24;100659.97;;;2.46;100.00
25658;BME280;13517;59.320;18.042;2022-10-23T06:36:49;100666.97;;;2.50;100.00
25658;BME280;13517;59.320;18.042;2022-10-23T06:39:15;100671.38;;;2.51;100.00
25658;BME280;13517;59.320;18.042;2022-10-23T06:41:40;100678.38;;;2.55;100.00
25658;BME280;13517;59.320;18.042;2022-10-23T06:44:06;100661.69;;;2.49;100.00
25658;BME280;13517;59.320;18.042;2022-10-23T06:46:34;100673.69;;;2.62;100.00
25658;BME280;13517;59.320;18.042;2022-10-23T06:48:59;100684.22;;;2.67;100.00
25658;BME280;13517;59.320;18.042;2022-10-23T06:51:24;100628.16;;;2.40;100.00
25658;BME280;13517;59.320;18.042;2022-10-23T06:53:54;100662.41;;;2.54;100.00
25658;BME280;13517;59.320;18.042;2022-10-23T06:56:19;100678.56;;;2.76;100.00
25658;BME280;13517;59.320;18.042;2022-10-23T06:58:45;100656.09;;;2.56;100.00
25658;BME280;13517;59.320;18.042;2022-10-23T07:01:11;100680.22;;;2.80;100.00
25658;BME280;13517;59.320;18.042;2022-10-23T07:03:37;100682.69;;;2.86;100.00
25658;BME280;13517;59.320;18.042;2022-10-23T07:06:05;100647.84;;;2.64;100.00
25658;BME280;13517;59.320;18.042;2022-10-23T07:08:31;100679.81;;;2.93;100.00
25658;BME280;13517;59.320;18.042;2022-10-23T07:10:56;100687.69;;;2.96;100.00
25658;BME280;13517;59.320;18.042;2022-10-23T07:13:22;100652.78;;;2.77;100.00
25658;BME280;13517;59.320;18.042;2022-10-23T07:15:49;100676.09;;;2.97;100.00
25658;BME280;13517;59.320;18.042;2022-10-23T07:18:15;100669.94;;;2.95;100.00
25658;BME280;13517;59.320;18.042;2022-10-23T07:20:41;100688.09;;;3.10;100.00
25658;BME280;13517;59.320;18.042;2022-10-23T07:23:08;100677.75;;;3.01;100.00
25658;BME280;13517;59.320;18.042;2022-10-23T07:25:35;100687.09;;;3.15;100.00
25658;BME280;13517;59.320;18.042;2022-10-23T07:28:03;100670.34;;;3.09;100.00
25658;BME280;13517;59.320;18.042;2022-10-23T07:30:28;100675.69;;;3.09;100.00
25658;BME280;13517;59.320;18.042;2022-10-23T07:32:53;100640.63;;;2.93;100.00
25658;BME280;13517;59.320;18.042;2022-10-23T07:35:19;100695.53;;;3.27;100.00
25658;BME280;13517;59.320;18.042;2022-10-23T07:37:44;100701.63;;;3.31;100.00
25658;BME280;13517;59.320;18.042;2022-10-23T07:40:10;100688.66;;;3.20;100.00
25658;BME280;13517;59.320;18.042;2022-10-23T07:42:35;100687.91;;;3.17;100.00
25658;BME280;13517;59.320;18.042;2022-10-23T07:45:01;100682.56;;;3.17;100.00
25658;BME280;13517;59.320;18.042;2022-10-23T07:47:28;100672.16;;;3.09;100.00
25658;BME280;13517;59.320;18.042;2022-10-23T07:49:54;100695.53;;;3.27;100.00
25658;BME280;13517;59.320;18.042;2022-10-23T07:52:19;100682.47;;;3.20;100.00
25658;BME280;13517;59.320;18.042;2022-10-23T07:54:44;100684.41;;;3.15;100.00
25658;BME280;13517;59.320;18.042;2022-10-23T07:57:10;100682.88;;;3.07;100.00
25658;BME280;13517;59.320;18.042;2022-10-23T07:59:36;100699.50;;;3.16;100.00
25658;BME280;13517;59.320;18.042;2022-10-23T08:02:01;100648.94;;;2.85;100.00
25658;BME280;13517;59.320;18.042;2022-10-23T08:04:27;100702.28;;;3.12;100.00
25658;BME280;13517;59.320;18.042;2022-10-23T08:06:52;100709.22;;;3.18;100.00
25658;BME280;13517;59.320;18.042;2022-10-23T08:09:20;100712.53;;;3.25;100.00
25658;BME280;13517;59.320;18.042;2022-10-23T08:11:45;100697.28;;;3.29;100.00
25658;BME280;13517;59.320;18.042;2022-10-23T08:14:11;100721.38;;;3.52;100.00
25658;BME280;13517;59.320;18.042;2022-10-23T08:16:37;100719.31;;;3.61;100.00
25658;BME280;13517;59.320;18.042;2022-10-23T08:19:05;100731.56;;;3.66;100.00
25658;BME280;13517;59.320;18.042;2022-10-23T08:21:30;100725.50;;;3.61;100.00
25658;BME280;13517;59.320;18.042;2022-10-23T08:23:57;100718.63;;;3.54;100.00
25658;BME280;13517;59.320;18.042;2022-10-23T08:26:23;100708.72;;;3.32;100.00
25658;BME280;13517;59.320;18.042;2022-10-23T08:28:50;100725.63;;;3.33;100.00
25658;BME280;13517;59.320;18.042;2022-10-23T08:31:18;100706.78;;;3.10;100.00
25658;BME280;13517;59.320;18.042;2022-10-23T08:33:44;100728.53;;;3.25;100.00
25658;BME280;13517;59.320;18.042;2022-10-23T08:36:21;100736.75;;;3.19;100.00
25658;BME280;13517;59.320;18.042;2022-10-23T08:38:47;100723.72;;;3.09;100.00
25658;BME280;13517;59.320;18.042;2022-10-23T08:41:24;100744.47;;;3.28;100.00
25658;BME280;13517;59.320;18.042;2022-10-23T08:44:10;100750.63;;;3.30;100.00
25658;BME280;13517;59.320;18.042;2022-10-23T08:46:41;100735.53;;;3.29;100.00
25658;BME280;13517;59.320;18.042;2022-10-23T08:51:54;100738.94;;;3.34;100.00
25658;BME280;13517;59.320;18.042;2022-10-23T08:56:53;100762.44;;;3.50;100.00
25658;BME280;13517;59.320;18.042;2022-10-23T08:59:26;100749.25;;;3.45;100.00
25658;BME280;13517;59.320;18.042;2022-10-23T09:01:59;100760.34;;;3.58;100.00
25658;BME280;13517;59.320;18.042;2022-10-23T09:04:26;100750.47;;;3.60;100.00
25658;BME280;13517;59.320;18.042;2022-10-23T09:07:09;100759.22;;;3.65;100.00
25658;BME280;13517;59.320;18.042;2022-10-23T09:12:17;100754.00;;;3.62;100.00
25658;BME280;13517;59.320;18.042;2022-10-23T09:17:30;100747.59;;;3.66;100.00
25658;BME280;13517;59.320;18.042;2022-10-23T09:23:13;100744.00;;;3.67;100.00
25658;BME280;13517;59.320;18.042;2022-10-23T09:25:40;100765.53;;;3.88;100.00
25658;BME280;13517;59.320;18.042;2022-10-23T09:28:22;100750.66;;;3.81;100.00
25658;BME280;13517;59.320;18.042;2022-10-23T09:30:49;100754.75;;;3.91;100.00
25658;BME280;13517;59.320;18.042;2022-10-23T09:33:25;100767.63;;;4.04;100.00
25658;BME280;13517;59.320;18.042;2022-10-23T09:35:56;100773.66;;;4.11;100.00
25658;BME280;13517;59.320;18.042;2022-10-23T09:38:38;100779.97;;;4.08;100.00
25658;BME280;13517;59.320;18.042;2022-10-23T09:41:18;100776.31;;;4.11;100.00
25658;BME280;13517;59.320;18.042;2022-10-23T09:43:44;100743.00;;;3.95;100.00
25658;BME280;13517;59.320;18.042;2022-10-23T09:46:10;100784.06;;;4.18;100.00
25658;BME280;13517;59.320;18.042;2022-10-23T09:48:37;100783.91;;;4.23;100.00
25658;BME280;13517;59.320;18.042;2022-10-23T09:51:18;100785.44;;;4.29;100.00
25658;BME280;13517;59.320;18.042;2022-10-23T09:53:51;100802.09;;;4.37;100.00
25658;BME280;13517;59.320;18.042;2022-10-23T09:56:26;100807.16;;;4.45;100.00
25658;BME280;13517;59.320;18.042;2022-10-23T09:59:18;100801.56;;;4.51;100.00
25658;BME280;13517;59.320;18.042;2022-10-23T10:02:17;100791.03;;;4.46;100.00
25658;BME280;13517;59.320;18.042;2022-10-23T10:04:44;100788.00;;;4.56;100.00
25658;BME280;13517;59.320;18.042;2022-10-23T10:07:20;100791.22;;;4.66;100.00
25658;BME280;13517;59.320;18.042;2022-10-23T10:09:46;100750.91;;;4.46;100.00
25658;BME280;13517;59.320;18.042;2022-10-23T10:15:30;100791.78;;;4.74;100.00
25658;BME280;13517;59.320;18.042;2022-10-23T10:23:52;100790.91;;;4.96;100.00
25658;BME280;13517;59.320;18.042;2022-10-23T10:28:57;100773.88;;;4.98;100.00
25658;BME280;13517;59.320;18.042;2022-10-23T10:31:34;100791.97;;;5.14;100.00
25658;BME280;13517;59.320;18.042;2022-10-23T10:34:19;100778.53;;;5.15;100.00
25658;BME280;13517;59.320;18.042;2022-10-23T10:36:50;100790.66;;;5.24;100.00
25658;BME280;13517;59.320;18.042;2022-10-23T10:50:52;100799.22;;;5.55;100.00
25658;BME280;13517;59.320;18.042;2022-10-23T10:53:45;100794.72;;;5.55;100.00
25658;BME280;13517;59.320;18.042;2022-10-23T10:56:14;100806.03;;;5.62;100.00
25658;BME280;13517;59.320;18.042;2022-10-23T10:58:50;100797.94;;;5.64;100.00
25658;BME280;13517;59.320;18.042;2022-10-23T11:06:56;100778.25;;;5.65;100.00
25658;BME280;13517;59.320;18.042;2022-10-23T11:09:26;100793.81;;;5.77;100.00
25658;BME280;13517;59.320;18.042;2022-10-23T11:11:52;100745.41;;;5.59;100.00
25658;BME280;13517;59.320;18.042;2022-10-23T11:14:22;100758.69;;;5.63;100.00
25658;BME280;13517;59.320;18.042;2022-10-23T11:19:33;100800.22;;;5.94;100.00
25658;BME280;13517;59.320;18.042;2022-10-23T11:27:25;100797.22;;;6.02;100.00
25658;BME280;13517;59.320;18.042;2022-10-23T11:41:02;100796.25;;;6.04;100.00
25658;BME280;13517;59.320;18.042;2022-10-23T11:43:54;100816.22;;;6.18;100.00
25658;BME280;13517;59.320;18.042;2022-10-23T11:48:48;100796.97;;;6.08;100.00
25658;BME280;13517;59.320;18.042;2022-10-23T11:51:44;100827.56;;;6.23;100.00
25658;BME280;13517;59.320;18.042;2022-10-23T11:56:49;100779.72;;;6.13;100.00
25658;BME280;13517;59.320;18.042;2022-10-23T11:59:28;100824.97;;;6.42;100.00
25658;BME280;13517;59.320;18.042;2022-10-23T12:01:59;100775.03;;;6.19;100.00
25658;BME280;13517;59.320;18.042;2022-10-23T12:04:44;100817.75;;;6.43;100.00
25658;BME280;13517;59.320;18.042;2022-10-23T12:07:32;100824.47;;;6.53;100.00
25658;BME280;13517;59.320;18.042;2022-10-23T12:10:02;100814.00;;;6.47;100.00
25658;BME280;13517;59.320;18.042;2022-10-23T12:12:33;100832.28;;;6.58;100.00
25658;BME280;13517;59.320;18.042;2022-10-23T12:15:19;100822.56;;;6.55;100.00
25658;BME280;13517;59.320;18.042;2022-10-23T12:17:47;100833.75;;;6.65;100.00
25658;BME280;13517;59.320;18.042;2022-10-23T12:22:46;100802.25;;;6.49;100.00
25658;BME280;13517;59.320;18.042;2022-10-23T12:28:13;100823.56;;;6.52;100.00
25658;BME280;13517;59.320;18.042;2022-10-23T12:38:24;100835.72;;;6.80;100.00
25658;BME280;13517;59.320;18.042;2022-10-23T12:40:59;100806.47;;;6.74;98.46
25658;BME280;13517;59.320;18.042;2022-10-23T12:43:30;100804.72;;;6.73;97.79
25658;BME280;13517;59.320;18.042;2022-10-23T12:46:04;100793.09;;;6.73;96.98
25658;BME280;13517;59.320;18.042;2022-10-23T12:48:46;100784.66;;;6.63;97.04
25658;BME280;13517;59.320;18.042;2022-10-23T12:51:19;100770.91;;;6.69;96.86
25658;BME280;13517;59.320;18.042;2022-10-23T12:53:47;100806.91;;;6.84;96.97
25658;BME280;13517;59.320;18.042;2022-10-23T12:56:14;100779.53;;;6.76;96.73
25658;BME280;13517;59.320;18.042;2022-10-23T12:58:46;100834.75;;;7.01;96.93
25658;BME280;13517;59.320;18.042;2022-10-23T13:01:27;100825.78;;;7.02;96.59
25658;BME280;13517;59.320;18.042;2022-10-23T13:04:30;100818.78;;;6.98;96.65
25658;BME280;13517;59.320;18.042;2022-10-23T13:06:58;100813.56;;;6.94;97.94
25658;BME280;13517;59.320;18.042;2022-10-23T13:09:36;100815.38;;;6.94;97.83
25658;BME280;13517;59.320;18.042;2022-10-23T13:12:05;100825.78;;;7.02;98.46
25658;BME280;13517;59.320;18.042;2022-10-23T13:14:41;100822.44;;;6.97;98.19
25658;BME280;13517;59.320;18.042;2022-10-23T13:17:09;100810.00;;;6.94;98.78
25658;BME280;13517;59.320;18.042;2022-10-23T13:19:36;100798.38;;;6.93;98.70
25658;BME280;13517;59.320;18.042;2022-10-23T13:22:22;100822.91;;;7.05;98.19
25658;BME280;13517;59.320;18.042;2022-10-23T13:24:47;100825.78;;;7.02;99.05
25658;BME280;13517;59.320;18.042;2022-10-23T13:27:31;100827.63;;;7.00;99.01
25658;BME280;13517;59.320;18.042;2022-10-23T13:29:57;100830.97;;;7.05;99.02
25658;BME280;13517;59.320;18.042;2022-10-23T13:32:26;100782.00;;;6.80;98.27
25658;BME280;13517;59.320;18.042;2022-10-23T13:34:54;100831.63;;;7.10;97.72
25658;BME280;13517;59.320;18.042;2022-10-23T13:37:25;100778.16;;;6.86;97.31
25658;BME280;13517;59.320;18.042;2022-10-23T13:40:05;100814.22;;;7.00;96.51
25658;BME280;13517;59.320;18.042;2022-10-23T13:42:33;100771.94;;;6.86;96.52
25658;BME280;13517;59.320;18.042;2022-10-23T13:44:59;100803.41;;;7.01;96.33
25658;BME280;13517;59.320;18.042;2022-10-23T13:47:25;100794.31;;;7.04;96.24
25658;BME280;13517;59.320;18.042;2022-10-23T13:49:50;100771.22;;;7.00;95.63
25658;BME280;13517;59.320;18.042;2022-10-23T13:52:18;100778.88;;;7.09;95.17
25658;BME280;13517;59.320;18.042;2022-10-23T13:54:44;100808.53;;;7.43;94.95
25658;BME280;13517;59.320;18.042;2022-10-23T13:57:12;100789.25;;;7.34;94.20
25658;BME280;13517;59.320;18.042;2022-10-23T13:59:38;100816.06;;;7.54;94.42
25658;BME280;13517;59.320;18.042;2022-10-23T14:02:15;100816.19;;;7.50;94.12
25658;BME280;13517;59.320;18.042;2022-10-23T14:04:41;100772.09;;;7.37;93.99
25658;BME280;13517;59.320;18.042;2022-10-23T14:07:07;100761.56;;;7.32;93.95
25658;BME280;13517;59.320;18.042;2022-10-23T14:09:32;100776.28;;;7.43;94.52
25658;BME280;13517;59.320;18.042;2022-10-23T14:11:58;100799.94;;;7.54;94.23
25658;BME280;13517;59.320;18.042;2022-10-23T14:14:23;100790.38;;;7.48;93.84
25658;BME280;13517;59.320;18.042;2022-10-23T14:16:48;100806.16;;;7.54;93.12
25658;BME280;13517;59.320;18.042;2022-10-23T14:19:14;100792.41;;;7.43;93.63
25658;BME280;13517;59.320;18.042;2022-10-23T14:21:39;100803.81;;;7.48;92.58
25658;BME280;13517;59.320;18.042;2022-10-23T14:24:05;100740.91;;;7.15;92.46
25658;BME280;13517;59.320;18.042;2022-10-23T14:26:30;100781.97;;;7.36;92.37
25658;BME280;13517;59.320;18.042;2022-10-23T14:28:57;100814.03;;;7.59;91.85
25658;BME280;13517;59.320;18.042;2022-10-23T14:31:23;100810.81;;;7.50;92.15